Time;durP1;ratioP1;P1;durP2;ratioP2;P2;SDS_P1;SDS_P2;PMS_P1;PMS_P2;Temp;Humidity;BMP_temperature;BMP_pressure;BME280_temperature;BME280_humidity;BME280_pressure;Samples;Min_cycle;Max_cycle;Signal;HPM_P1;HPM_P2
2023/04/02 00:00:09;;;;;;;12.30;5.97;;;6.10;99.90;;;;;;5058361;28;20336;-64
2023/04/02 00:02:50;;;;;;;9.82;5.85;;;6.10;99.90;;;;;;5054761;28;20041;-64
2023/04/02 00:05:18;;;;;;;9.77;5.40;;;6.00;99.90;;;;;;5058463;28;20044;-64
2023/04/02 00:07:47;;;;;;;9.40;5.80;;;6.00;99.90;;;;;;5049625;28;20049;-64
2023/04/02 00:10:33;;;;;;;12.70;5.28;;;6.00;99.90;;;;;;5053584;28;20056;-64
2023/04/02 00:13:08;;;;;;;12.48;5.70;;;6.00;99.90;;;;;;5057934;28;20041;-64
2023/04/02 00:15:34;;;;;;;12.55;6.32;;;5.90;99.90;;;;;;5060753;28;20106;-64
2023/04/02 00:18:00;;;;;;;11.43;6.10;;;5.90;99.90;;;;;;5060902;28;20109;-64
2023/04/02 00:20:29;;;;;;;11.70;5.70;;;5.80;99.90;;;;;;5060728;28;20059;-64
2023/04/02 00:22:55;;;;;;;16.35;6.55;;;5.80;99.90;;;;;;5054538;28;20898;-64
2023/04/02 00:25:21;;;;;;;13.13;6.03;;;5.70;99.90;;;;;;5059331;28;20386;-64
2023/04/02 00:27:47;;;;;;;12.45;5.70;;;5.80;99.90;;;;;;5055839;28;20052;-64
2023/04/02 00:30:13;;;;;;;9.60;5.82;;;5.80;99.90;;;;;;5057118;28;20044;-64
2023/04/02 00:32:38;;;;;;;11.02;6.10;;;5.80;99.90;;;;;;5061905;28;20041;-64
2023/04/02 00:35:28;;;;;;;11.98;6.32;;;5.70;99.90;;;;;;5059658;28;20356;-64
2023/04/02 00:37:55;;;;;;;11.10;6.30;;;5.60;99.90;;;;;;5062632;28;20040;-64
2023/04/02 00:40:29;;;;;;;11.95;5.93;;;5.70;99.90;;;;;;5063152;28;20071;-64
2023/04/02 00:42:58;;;;;;;12.05;6.32;;;5.70;99.90;;;;;;5065242;28;20507;-64
2023/04/02 00:45:31;;;;;;;13.10;6.03;;;5.70;99.90;;;;;;5058669;28;20508;-64
2023/04/02 00:48:12;;;;;;;9.93;5.78;;;5.70;99.90;;;;;;5061585;28;20045;-64
2023/04/02 00:50:41;;;;;;;10.55;6.00;;;5.70;99.90;;;;;;5054701;28;20059;-63
2023/04/02 00:53:14;;;;;;;9.73;5.32;;;5.70;99.90;;;;;;5060394;28;20132;-64
2023/04/02 00:55:40;;;;;;;10.18;5.72;;;5.70;99.90;;;;;;5062085;28;20106;-64
2023/04/02 00:58:35;;;;;;;8.90;5.55;;;5.60;99.90;;;;;;5061648;28;20056;-64
2023/04/02 01:01:03;;;;;;;11.85;5.82;;;5.60;99.90;;;;;;5058731;28;20060;-64
2023/04/02 01:03:28;;;;;;;8.88;5.30;;;5.60;99.90;;;;;;5065346;28;20122;-64
2023/04/02 01:06:03;;;;;;;10.38;5.75;;;5.60;99.90;;;;;;5060009;28;20488;-64
2023/04/02 01:08:41;;;;;;;10.60;5.75;;;5.50;99.90;;;;;;5065470;28;20044;-64
2023/04/02 01:11:38;;;;;;;10.00;5.45;;;5.40;99.90;;;;;;5053596;28;20057;-64
2023/04/02 01:14:45;;;;;;;9.98;5.60;;;5.40;99.90;;;;;;5057138;28;20144;-64
2023/04/02 01:17:27;;;;;;;10.23;5.28;;;5.40;99.90;;;;;;5057664;28;20234;-64
2023/04/02 01:19:52;;;;;;;9.48;5.78;;;5.50;99.90;;;;;;5065474;28;20125;-64
2023/04/02 01:22:18;;;;;;;9.63;5.28;;;5.40;99.90;;;;;;5066345;28;20122;-64
2023/04/02 01:24:44;;;;;;;9.70;5.00;;;5.40;99.90;;;;;;5057615;28;20094;-64
2023/04/02 01:27:12;;;;;;;9.75;5.57;;;5.40;99.90;;;;;;5062287;28;20044;-64
2023/04/02 01:29:45;;;;;;;9.15;4.75;;;5.40;99.90;;;;;;5068348;28;20405;-64
2023/04/02 01:32:13;;;;;;;9.85;5.40;;;5.40;99.90;;;;;;5062389;28;20072;-64
2023/04/02 01:34:43;;;;;;;9.75;5.57;;;5.30;99.90;;;;;;5067275;28;20048;-64
2023/04/02 01:37:33;;;;;;;10.18;5.53;;;5.30;99.90;;;;;;5058353;28;20120;-64
2023/04/02 01:40:13;;;;;;;8.45;4.95;;;5.30;99.90;;;;;;5068139;28;20044;-64
2023/04/02 01:42:51;;;;;;;9.65;4.97;;;5.30;99.90;;;;;;5061320;28;20481;-64
2023/04/02 01:45:18;;;;;;;9.68;5.50;;;5.30;99.90;;;;;;5060877;28;20045;-64
2023/04/02 01:47:45;;;;;;;11.50;5.38;;;5.30;99.90;;;;;;5070830;28;20045;-64
2023/04/02 01:50:22;;;;;;;9.02;5.18;;;5.30;99.90;;;;;;5064269;28;20059;-64
2023/04/02 01:52:51;;;;;;;11.60;4.80;;;5.30;99.90;;;;;;5068269;28;20057;-64
2023/04/02 01:55:28;;;;;;;8.88;4.32;;;5.20;99.90;;;;;;5062897;28;20048;-64
2023/04/02 01:57:54;;;;;;;9.00;4.90;;;5.20;99.90;;;;;;5063975;28;20410;-64
2023/04/02 02:00:21;;;;;;;9.05;4.68;;;5.20;99.90;;;;;;5056852;28;20049;-64
2023/04/02 02:02:49;;;;;;;8.98;4.75;;;5.20;99.90;;;;;;5063551;28;20040;-64
2023/04/02 02:05:18;;;;;;;8.52;4.43;;;5.20;99.90;;;;;;5060556;28;20117;-64
2023/04/02 02:07:44;;;;;;;10.15;4.90;;;5.10;99.90;;;;;;5068696;28;20091;-63
2023/04/02 02:10:16;;;;;;;8.98;4.70;;;5.20;99.90;;;;;;5060735;28;20137;-64
2023/04/02 02:12:44;;;;;;;8.43;4.05;;;5.10;99.90;;;;;;5061826;28;20041;-64
2023/04/02 02:15:19;;;;;;;9.93;4.45;;;5.10;99.90;;;;;;5066105;28;20117;-64
2023/04/02 02:17:45;;;;;;;8.93;4.22;;;5.10;99.90;;;;;;5059130;28;20033;-63
2023/04/02 02:20:12;;;;;;;11.70;4.35;;;4.90;99.90;;;;;;5059270;28;20484;-64
2023/04/02 02:22:50;;;;;;;10.20;4.18;;;4.90;99.90;;;;;;5068291;28;20048;-64
2023/04/02 02:25:22;;;;;;;7.78;4.05;;;4.80;99.90;;;;;;5057177;28;20048;-63
2023/04/02 02:28:13;;;;;;;7.78;4.05;;;4.70;99.90;;;;;;5060109;28;20056;-64
2023/04/02 02:31:01;;;;;;;8.18;3.67;;;4.60;99.90;;;;;;5057691;28;20923;-63
2023/04/02 02:33:40;;;;;;;8.05;3.83;;;4.50;99.90;;;;;;5066062;28;20380;-64
2023/04/02 02:36:32;;;;;;;9.45;3.83;;;4.30;99.90;;;;;;5059463;28;20552;-64
2023/04/02 02:39:15;;;;;;;7.68;3.80;;;4.20;99.90;;;;;;5062329;28;20037;-64
2023/04/02 02:42:04;;;;;;;7.47;3.72;;;4.10;99.90;;;;;;5064105;28;20491;-64
2023/04/02 02:44:38;;;;;;;7.43;3.55;;;4.10;99.90;;;;;;5053889;28;20064;-63
2023/04/02 02:47:23;;;;;;;9.02;3.85;;;4.00;99.90;;;;;;5054544;28;20492;-64
2023/04/02 02:49:53;;;;;;;8.23;3.75;;;4.00;99.90;;;;;;5059750;28;20163;-64
2023/04/02 02:52:21;;;;;;;7.53;3.83;;;3.90;99.90;;;;;;5057132;28;20064;-64
2023/04/02 02:55:00;;;;;;;6.90;3.38;;;3.90;99.90;;;;;;5059711;28;20086;-64
2023/04/02 02:57:52;;;;;;;6.93;3.53;;;3.80;99.90;;;;;;5061687;28;20436;-64
2023/04/02 03:00:19;;;;;;;7.38;3.17;;;3.70;99.90;;;;;;5058679;28;20167;-64
2023/04/02 03:02:46;;;;;;;7.95;3.65;;;3.70;99.90;;;;;;5056051;28;20112;-63
2023/04/02 03:05:20;;;;;;;6.65;3.00;;;3.60;99.90;;;;;;5057616;28;20428;-64
2023/04/02 03:07:48;;;;;;;8.18;3.13;;;3.60;99.90;;;;;;5058394;28;20036;-64
2023/04/02 03:10:34;;;;;;;8.95;3.47;;;3.60;99.90;;;;;;5060429;28;20037;-64
2023/04/02 03:13:20;;;;;;;6.80;3.20;;;3.50;99.90;;;;;;5048300;28;20121;-63
2023/04/02 03:16:02;;;;;;;11.82;3.47;;;3.50;99.90;;;;;;5051842;28;20033;-64
2023/04/02 03:18:40;;;;;;;7.30;3.38;;;3.50;99.90;;;;;;5052975;28;20036;-63
2023/04/02 03:21:19;;;;;;;8.48;3.20;;;3.40;99.90;;;;;;5053279;28;20091;-65
2023/04/02 03:23:52;;;;;;;8.02;3.22;;;3.30;99.90;;;;;;5055232;28;20441;-64
2023/04/02 03:26:28;;;;;;;9.52;3.42;;;3.30;99.90;;;;;;5050622;28;20041;-64
2023/04/02 03:29:15;;;;;;;8.23;3.25;;;3.30;99.90;;;;;;5058190;28;20168;-64
2023/04/02 03:31:45;;;;;;;8.13;3.20;;;3.30;99.90;;;;;;5053404;28;20155;-64
2023/04/02 03:34:22;;;;;;;6.80;3.13;;;3.20;99.90;;;;;;5052793;28;20144;-64
2023/04/02 03:36:48;;;;;;;8.27;3.10;;;3.20;99.90;;;;;;5050013;28;20120;-64
2023/04/02 03:39:19;;;;;;;7.28;3.28;;;3.10;99.90;;;;;;5062548;28;20120;-64
2023/04/02 03:41:51;;;;;;;10.55;3.47;;;3.10;99.90;;;;;;5062045;28;20037;-64
2023/04/02 03:44:27;;;;;;;7.65;3.22;;;3.10;99.90;;;;;;5060562;28;20326;-63
2023/04/02 03:46:56;;;;;;;7.90;3.35;;;3.00;99.90;;;;;;5061249;28;20036;-63
2023/04/02 03:49:30;;;;;;;9.00;3.53;;;3.00;99.90;;;;;;5061910;28;20080;-63
2023/04/02 03:52:08;;;;;;;7.30;3.58;;;3.00;99.90;;;;;;5065117;28;20502;-63
2023/04/02 03:54:35;;;;;;;8.13;3.05;;;2.90;99.90;;;;;;5053661;28;20433;-64
2023/04/02 03:57:01;;;;;;;9.32;3.38;;;2.90;99.90;;;;;;5058365;28;20045;-64
2023/04/02 03:59:49;;;;;;;8.65;3.65;;;2.90;99.90;;;;;;5065985;28;21567;-64
2023/04/02 04:02:27;;;;;;;7.65;3.20;;;2.80;99.90;;;;;;5059572;28;20072;-63
2023/04/02 04:04:54;;;;;;;10.00;3.03;;;2.80;99.90;;;;;;5066812;28;20460;-63
2023/04/02 04:07:37;;;;;;;8.75;3.80;;;2.80;99.90;;;;;;5063553;28;20048;-63
2023/04/02 04:10:05;;;;;;;9.88;3.50;;;2.80;99.90;;;;;;5060909;28;20049;-63
2023/04/02 04:12:42;;;;;;;8.02;3.35;;;2.80;99.90;;;;;;5052627;28;20048;-63
2023/04/02 04:15:13;;;;;;;8.88;3.47;;;2.80;99.90;;;;;;5057445;28;20459;-63
2023/04/02 04:17:52;;;;;;;8.43;3.22;;;2.80;99.90;;;;;;5063050;28;20044;-63
2023/04/02 04:20:24;;;;;;;8.32;3.05;;;2.80;99.90;;;;;;5056266;28;20094;-63
2023/04/02 04:22:54;;;;;;;8.95;3.47;;;2.80;99.90;;;;;;5060854;28;20163;-63
2023/04/02 04:25:28;;;;;;;9.27;3.50;;;2.80;99.90;;;;;;5061273;28;20036;-64
2023/04/02 04:28:17;;;;;;;9.70;3.20;;;2.80;99.90;;;;;;5060244;28;20060;-63
2023/04/02 04:31:02;;;;;;;8.10;3.30;;;2.80;99.90;;;;;;5058720;28;20163;-63
2023/04/02 04:33:40;;;;;;;7.43;3.40;;;2.90;99.90;;;;;;5063750;28;20033;-64
2023/04/02 04:36:18;;;;;;;8.63;3.17;;;2.90;99.90;;;;;;5061728;28;20061;-64
2023/04/02 04:38:54;;;;;;;6.07;2.85;;;2.90;99.90;;;;;;5053406;28;20094;-63
2023/04/02 04:41:25;;;;;;;8.50;3.13;;;2.90;99.90;;;;;;5053221;28;20446;-63
2023/04/02 04:44:04;;;;;;;7.43;2.92;;;2.90;99.90;;;;;;5056201;28;20456;-64
2023/04/02 04:46:34;;;;;;;8.73;3.10;;;2.90;99.90;;;;;;5057256;28;20033;-64
2023/04/02 04:49:40;;;;;;;6.85;2.83;;;2.90;99.90;;;;;;5052536;28;20052;-64
2023/04/02 04:52:32;;;;;;;8.73;3.58;;;2.90;99.90;;;;;;5058363;28;20057;-64
2023/04/02 04:54:58;;;;;;;8.23;3.20;;;2.90;99.90;;;;;;5057011;28;20395;-64
2023/04/02 04:57:33;;;;;;;6.38;2.83;;;2.90;99.90;;;;;;5058401;28;20049;-63
2023/04/02 05:00:43;;;;;;;9.68;3.30;;;2.90;99.90;;;;;;5055997;28;20142;-64
2023/04/02 05:03:27;;;;;;;7.75;2.70;;;2.90;99.90;;;;;;5032733;28;20053;-64
2023/04/02 05:05:58;;;;;;;7.10;2.47;;;2.90;99.90;;;;;;5053227;28;20359;-64
2023/04/02 05:08:32;;;;;;;7.03;2.60;;;2.90;99.90;;;;;;5055183;28;20037;-64
2023/04/02 05:11:04;;;;;;;6.50;2.80;;;2.90;99.90;;;;;;5055202;28;20568;-64
2023/04/02 05:13:41;;;;;;;7.45;2.85;;;2.90;99.90;;;;;;5067024;28;20045;-63
2023/04/02 05:16:25;;;;;;;8.45;3.38;;;2.80;99.90;;;;;;5058288;28;20068;-63
2023/04/02 05:19:09;;;;;;;8.60;2.80;;;2.80;99.90;;;;;;5068964;28;20049;-64
2023/04/02 05:21:56;;;;;;;6.28;2.33;;;2.80;99.90;;;;;;5053803;28;20084;-65
2023/04/02 05:24:40;;;;;;;6.95;2.58;;;2.70;99.90;;;;;;5061367;28;20435;-65
2023/04/02 05:27:30;;;;;;;9.38;2.80;;;2.70;99.90;;;;;;5053900;28;20045;-65
2023/04/02 05:30:21;;;;;;;5.80;2.80;;;2.80;99.90;;;;;;5055591;28;20110;-65
2023/04/02 05:32:56;;;;;;;5.80;2.08;;;2.70;99.90;;;;;;5061374;28;20068;-64
2023/04/02 05:35:32;;;;;;;5.28;2.40;;;2.70;99.90;;;;;;5065667;28;20057;-63
2023/04/02 05:38:00;;;;;;;9.35;2.63;;;2.70;99.90;;;;;;5071209;28;20044;-65
2023/04/02 05:40:49;;;;;;;6.15;2.50;;;2.80;99.90;;;;;;5071927;28;20044;-64
2023/04/02 05:43:19;;;;;;;7.05;2.22;;;2.70;99.90;;;;;;5067577;28;20045;-64
2023/04/02 05:45:52;;;;;;;15.07;3.00;;;2.70;99.90;;;;;;5066560;28;20142;-65
2023/04/02 05:48:21;;;;;;;5.35;2.35;;;2.70;99.90;;;;;;5067696;28;20044;-65
2023/04/02 05:50:51;;;;;;;8.18;2.58;;;2.70;99.90;;;;;;5076366;28;20041;-64
2023/04/02 05:53:28;;;;;;;5.90;2.38;;;2.80;99.90;;;;;;5072958;28;20048;-65
2023/04/02 05:56:19;;;;;;;7.32;2.22;;;2.80;99.90;;;;;;5076019;28;20115;-64
2023/04/02 05:58:48;;;;;;;7.00;2.40;;;2.80;99.90;;;;;;5057370;28;20158;-65
2023/04/02 06:01:28;;;;;;;6.65;2.08;;;2.90;99.90;;;;;;5070923;28;20111;-64
2023/04/02 06:03:57;;;;;;;6.57;2.40;;;2.90;99.90;;;;;;5068644;28;20028;-65
2023/04/02 06:06:44;;;;;;;5.95;2.22;;;2.80;99.90;;;;;;5061342;28;20459;-66
2023/04/02 06:09:29;;;;;;;5.72;2.10;;;2.90;99.90;;;;;;5060626;28;20488;-65
2023/04/02 06:12:14;;;;;;;8.93;2.60;;;2.90;99.90;;;;;;5055582;28;20119;-65
2023/04/02 06:14:40;;;;;;;7.68;2.33;;;2.90;99.90;;;;;;5060396;28;20505;-65
2023/04/02 06:17:14;;;;;;;7.80;2.38;;;2.90;99.90;;;;;;5060353;28;20040;-65
2023/04/02 06:19:40;;;;;;;6.32;2.15;;;3.00;99.90;;;;;;5062414;28;20068;-64
2023/04/02 06:22:32;;;;;;;9.38;3.03;;;3.10;99.90;;;;;;5060343;28;20138;-66
2023/04/02 06:25:21;;;;;;;7.30;2.20;;;3.10;99.90;;;;;;5067025;28;20040;-64
2023/04/02 06:27:49;;;;;;;7.30;2.30;;;3.10;99.90;;;;;;5065630;28;20096;-63
2023/04/02 06:30:19;;;;;;;8.45;2.30;;;3.20;99.90;;;;;;5064753;28;20040;-64
2023/04/02 06:32:45;;;;;;;6.70;2.50;;;3.20;99.90;;;;;;5064283;28;20154;-64
2023/04/02 06:35:15;;;;;;;7.03;2.00;;;3.30;99.90;;;;;;5059484;28;20139;-63
2023/04/02 06:37:44;;;;;;;6.53;1.92;;;3.30;99.90;;;;;;5063705;28;20480;-64
2023/04/02 06:40:47;;;;;;;5.35;1.85;;;3.30;99.90;;;;;;5057635;28;20075;-64
2023/04/02 06:43:34;;;;;;;5.90;2.10;;;3.40;99.90;;;;;;5050609;28;20408;-64
2023/04/02 06:46:11;;;;;;;9.70;2.33;;;3.50;99.90;;;;;;5056404;28;20115;-64
2023/04/02 06:48:38;;;;;;;7.78;2.00;;;3.40;99.90;;;;;;5052400;28;20338;-64
2023/04/02 06:51:10;;;;;;;6.20;1.67;;;3.40;99.90;;;;;;5063561;28;20055;-64
2023/04/02 06:53:38;;;;;;;7.65;2.17;;;3.50;99.90;;;;;;5057973;28;20040;-64
2023/04/02 06:56:26;;;;;;;6.28;1.80;;;3.50;99.90;;;;;;5064995;28;20052;-64
2023/04/02 06:58:52;;;;;;;4.95;1.77;;;3.60;99.90;;;;;;5062668;28;20060;-64
2023/04/02 07:01:22;;;;;;;5.00;1.90;;;3.60;99.90;;;;;;5063226;28;20075;-65
2023/04/02 07:03:48;;;;;;;8.35;2.13;;;3.60;99.90;;;;;;5070729;28;20526;-64
2023/04/02 07:06:19;;;;;;;5.85;1.90;;;3.60;99.90;;;;;;5060082;28;20154;-64
2023/04/02 07:08:45;;;;;;;7.40;2.20;;;3.70;99.90;;;;;;5059327;28;20136;-65
2023/04/02 07:11:16;;;;;;;5.38;2.05;;;3.70;99.90;;;;;;5050909;28;20087;-64
2023/04/02 07:13:42;;;;;;;8.77;2.35;;;3.70;99.90;;;;;;5062947;28;20451;-65
2023/04/02 07:16:35;;;;;;;6.82;2.20;;;3.80;99.90;;;;;;5059130;28;20040;-65
2023/04/02 07:19:02;;;;;;;8.55;2.15;;;3.70;99.90;;;;;;5058931;28;20062;-65
2023/04/02 07:21:29;;;;;;;6.57;2.08;;;3.60;99.90;;;;;;5059658;28;20082;-65
2023/04/02 07:23:55;;;;;;;6.53;2.28;;;3.70;99.90;;;;;;5071598;28;20063;-65
2023/04/02 07:26:24;;;;;;;5.93;1.90;;;3.80;99.90;;;;;;5063709;28;20041;-64
2023/04/02 07:28:50;;;;;;;5.88;2.05;;;3.90;99.90;;;;;;5072583;28;20067;-67
2023/04/02 07:31:27;;;;;;;6.13;2.08;;;3.80;99.90;;;;;;5072099;28;20072;-64
2023/04/02 07:33:57;;;;;;;4.78;1.88;;;3.80;99.90;;;;;;5061058;28;20120;-65
2023/04/02 07:36:23;;;;;;;6.90;1.95;;;3.90;99.90;;;;;;5062617;28;20362;-64
2023/04/02 07:38:49;;;;;;;4.18;2.00;;;3.90;99.90;;;;;;5071746;28;20110;-64
2023/04/02 07:41:15;;;;;;;6.68;1.73;;;3.90;99.90;;;;;;5073849;28;20393;-65
2023/04/02 07:43:41;;;;;;;5.00;1.80;;;3.90;99.90;;;;;;5071679;28;20040;-64
2023/04/02 07:46:09;;;;;;;6.20;1.60;;;4.00;99.90;;;;;;5078180;28;20458;-65
2023/04/02 07:48:35;;;;;;;7.93;2.10;;;4.00;99.90;;;;;;5060001;28;20075;-65
2023/04/02 07:51:03;;;;;;;3.75;1.63;;;4.00;99.90;;;;;;5058545;28;20044;-64
2023/04/02 07:53:34;;;;;;;6.20;1.48;;;4.00;99.90;;;;;;5045749;28;20373;-64
2023/04/02 07:56:02;;;;;;;7.10;1.67;;;4.10;99.90;;;;;;5053229;28;20045;-64
2023/04/02 07:58:31;;;;;;;6.57;1.88;;;4.10;99.90;;;;;;5062612;28;20047;-64
2023/04/02 08:00:58;;;;;;;7.80;2.15;;;4.20;99.90;;;;;;5063604;28;20041;-64
2023/04/02 08:03:24;;;;;;;4.95;1.58;;;4.20;99.90;;;;;;5068192;28;20073;-64
2023/04/02 08:05:54;;;;;;;5.15;1.70;;;4.30;99.90;;;;;;5056995;28;20037;-64
2023/04/02 08:08:21;;;;;;;6.40;1.90;;;4.40;99.90;;;;;;5062252;28;20033;-64
2023/04/02 08:10:47;;;;;;;7.18;2.20;;;4.40;99.90;;;;;;5051019;28;20063;-64
2023/04/02 08:13:15;;;;;;;5.63;1.70;;;4.50;99.90;;;;;;5058103;28;20052;-64
2023/04/02 08:15:40;;;;;;;6.22;1.50;;;4.50;99.90;;;;;;5068995;28;20215;-64
2023/04/02 08:18:07;;;;;;;7.95;1.85;;;4.70;99.90;;;;;;5063267;28;20199;-65
2023/04/02 08:20:33;;;;;;;5.90;1.40;;;4.90;99.90;;;;;;5069856;28;20042;-64
2023/04/02 08:22:59;;;;;;;5.93;1.70;;;5.00;99.90;;;;;;5061255;28;20116;-63
2023/04/02 08:25:26;;;;;;;4.95;1.60;;;5.10;99.90;;;;;;5068234;28;20045;-64
2023/04/02 08:27:51;;;;;;;7.22;1.85;;;5.20;99.90;;;;;;5064207;28;20443;-62
2023/04/02 08:30:18;;;;;;;5.53;1.60;;;5.50;99.90;;;;;;5069299;28;20068;-64
2023/04/02 08:32:43;;;;;;;7.03;1.90;;;5.60;99.90;;;;;;5066268;28;20129;-64
2023/04/02 08:35:11;;;;;;;5.55;1.40;;;5.70;99.90;;;;;;5066465;28;20060;-64
2023/04/02 08:37:37;;;;;;;4.60;1.38;;;5.60;99.90;;;;;;5062699;28;20095;-64
2023/04/02 08:40:05;;;;;;;7.20;1.35;;;5.70;99.90;;;;;;5061226;28;20468;-63
2023/04/02 08:42:39;;;;;;;7.28;1.42;;;5.80;99.90;;;;;;5064682;28;20136;-63
2023/04/02 08:45:20;;;;;;;4.63;1.35;;;5.70;99.90;;;;;;5055410;28;20040;-64
2023/04/02 08:47:47;;;;;;;7.35;1.50;;;5.70;99.90;;;;;;5064403;28;20139;-63
2023/04/02 08:50:33;;;;;;;5.25;1.33;;;5.70;99.90;;;;;;5057942;28;20041;-63
2023/04/02 08:53:03;;;;;;;5.97;1.30;;;5.70;99.90;;;;;;5062416;28;20418;-65
2023/04/02 08:55:34;;;;;;;7.57;1.58;;;5.80;99.90;;;;;;5062719;28;20055;-65
2023/04/02 08:58:32;;;;;;;7.45;1.40;;;5.80;99.90;;;;;;5062852;28;20116;-64
2023/04/02 09:01:01;;;;;;;6.28;1.58;;;5.80;99.90;;;;;;5056360;28;20444;-64
2023/04/02 09:03:34;;;;;;;6.40;1.75;;;5.90;99.90;;;;;;5056622;28;20049;-63
2023/04/02 09:06:02;;;;;;;4.30;1.30;;;5.90;99.90;;;;;;5058582;28;20125;-63
2023/04/02 09:08:30;;;;;;;5.85;1.50;;;5.90;99.90;;;;;;5064602;28;20060;-64
2023/04/02 09:11:06;;;;;;;3.13;1.20;;;5.90;99.90;;;;;;5061791;28;20045;-64
2023/04/02 09:13:36;;;;;;;7.82;1.52;;;6.00;99.90;;;;;;5070266;28;20501;-64
2023/04/02 09:16:13;;;;;;;8.48;1.55;;;6.00;99.90;;;;;;5076179;28;20036;-63
2023/04/02 09:18:39;;;;;;;6.68;1.35;;;6.10;99.90;;;;;;5069601;28;20040;-64
2023/04/02 09:21:33;;;;;;;4.30;1.27;;;6.20;99.90;;;;;;5064686;28;20044;-64
2023/04/02 09:23:59;;;;;;;5.75;1.48;;;6.10;99.90;;;;;;5065387;28;20066;-64
2023/04/02 09:26:30;;;;;;;5.00;1.35;;;6.30;99.90;;;;;;5060949;28;20418;-64
2023/04/02 09:29:24;;;;;;;4.85;1.25;;;6.40;99.90;;;;;;5067770;28;20113;-63
2023/04/02 09:32:11;;;;;;;4.47;1.25;;;6.40;99.90;;;;;;5057406;28;20679;-64
2023/04/02 09:34:37;;;;;;;5.50;1.70;;;6.30;99.90;;;;;;5061421;28;20045;-65
2023/04/02 09:37:08;;;;;;;5.05;1.55;;;6.20;99.90;;;;;;5062427;28;20043;-64
2023/04/02 09:39:34;;;;;;;4.57;1.65;;;6.10;99.90;;;;;;5066534;28;20098;-64
2023/04/02 09:42:24;;;;;;;6.93;1.67;;;6.00;99.90;;;;;;5067127;28;20436;-63
2023/04/02 09:44:49;;;;;;;3.92;1.23;;;6.00;99.90;;;;;;5056510;28;20048;-64
2023/04/02 09:47:27;;;;;;;4.15;1.27;;;6.10;99.90;;;;;;5059857;28;20091;-63
2023/04/02 09:49:53;;;;;;;4.72;1.23;;;6.10;99.90;;;;;;5067176;28;20041;-64
2023/04/02 09:52:29;;;;;;;4.55;1.27;;;6.20;99.90;;;;;;5060524;28;20045;-64
2023/04/02 09:55:18;;;;;;;5.13;1.25;;;6.30;99.90;;;;;;5060209;28;20445;-64
2023/04/02 09:57:46;;;;;;;4.60;1.52;;;6.30;99.90;;;;;;5057584;28;20040;-63
2023/04/02 10:00:22;;;;;;;5.95;1.35;;;6.50;99.90;;;;;;5062617;28;20045;-63
2023/04/02 10:03:20;;;;;;;4.30;1.30;;;6.60;99.90;;;;;;5060400;28;20132;-63
2023/04/02 10:05:47;;;;;;;3.85;1.20;;;6.60;99.90;;;;;;5071639;28;20056;-63
2023/04/02 10:08:26;;;;;;;5.55;1.05;;;6.80;99.90;;;;;;5075225;28;20040;-63
2023/04/02 10:10:56;;;;;;;5.30;1.52;;;6.90;99.90;;;;;;5071991;28;20068;-63
2023/04/02 10:13:34;;;;;;;4.38;1.35;;;6.90;99.90;;;;;;5065678;28;20045;-63
2023/04/02 10:16:42;;;;;;;3.75;1.25;;;7.00;99.90;;;;;;5065234;28;20060;-64
2023/04/02 10:19:32;;;;;;;4.90;1.30;;;7.10;99.90;;;;;;5048926;28;20107;-64
2023/04/02 10:22:01;;;;;;;6.85;1.40;;;7.20;99.90;;;;;;5064910;28;20103;-65
2023/04/02 10:24:27;;;;;;;8.05;1.73;;;7.30;99.90;;;;;;5070739;28;20559;-63
2023/04/02 10:27:08;;;;;;;4.30;1.40;;;7.30;99.90;;;;;;5069322;28;20534;-64
2023/04/02 10:29:50;;;;;;;4.88;1.45;;;7.40;99.90;;;;;;5067805;28;20785;-64
2023/04/02 10:32:29;;;;;;;4.85;1.40;;;7.40;99.90;;;;;;5051695;28;20099;-64
2023/04/02 10:35:07;;;;;;;5.35;1.25;;;7.40;99.90;;;;;;5061791;28;20059;-64
2023/04/02 10:37:45;;;;;;;3.50;1.20;;;7.40;99.90;;;;;;5070336;28;20098;-64
2023/04/02 10:40:38;;;;;;;2.85;1.30;;;7.40;99.90;;;;;;5065694;28;20055;-64
2023/04/02 10:43:41;;;;;;;7.53;1.33;;;7.40;99.90;;;;;;5070047;28;20036;-64
2023/04/02 10:46:36;;;;;;;3.90;1.40;;;7.60;99.90;;;;;;5055787;28;20037;-64
2023/04/02 10:49:29;;;;;;;4.03;1.20;;;7.70;99.90;;;;;;5071305;28;20162;-64
2023/04/02 10:52:20;;;;;;;5.00;1.50;;;7.70;99.90;;;;;;5058618;28;20062;-64
2023/04/02 10:54:48;;;;;;;5.07;1.50;;;7.80;99.90;;;;;;5061338;28;20045;-64
2023/04/02 10:57:30;;;;;;;3.38;1.00;;;7.90;99.90;;;;;;5067810;28;20099;-64
2023/04/02 11:00:11;;;;;;;8.95;1.75;;;7.90;99.90;;;;;;5070514;28;20051;-64
2023/04/02 11:02:58;;;;;;;5.32;1.30;;;7.90;99.90;;;;;;5070548;28;20182;-65
2023/04/02 11:05:30;;;;;;;2.78;1.00;;;7.90;99.90;;;;;;5046157;28;20041;-64
2023/04/02 11:08:22;;;;;;;5.35;1.65;;;8.00;99.90;;;;;;5070812;28;20056;-64
2023/04/02 11:10:57;;;;;;;5.80;1.40;;;8.00;99.90;;;;;;5048330;28;20106;-64
2023/04/02 11:13:41;;;;;;;4.38;1.45;;;8.10;99.90;;;;;;5055600;28;20436;-64
2023/04/02 11:16:07;;;;;;;3.65;1.30;;;8.20;99.90;;;;;;5057141;28;20053;-64
2023/04/02 11:18:37;;;;;;;4.45;1.27;;;8.20;99.90;;;;;;5061558;28;20492;-64
2023/04/02 11:21:27;;;;;;;3.50;1.20;;;8.40;99.90;;;;;;5070201;28;20098;-64
2023/04/02 11:23:59;;;;;;;3.78;1.35;;;8.40;99.90;;;;;;5067874;28;20097;-64
2023/04/02 11:26:46;;;;;;;4.93;1.30;;;8.40;99.90;;;;;;5068741;28;20064;-64
2023/04/02 11:29:28;;;;;;;3.58;1.20;;;8.40;99.90;;;;;;5068970;28;20094;-64
2023/04/02 11:32:26;;;;;;;5.50;1.33;;;8.40;99.90;;;;;;5066641;28;20448;-64
2023/04/02 11:34:54;;;;;;;5.38;1.38;;;8.50;99.90;;;;;;5061861;28;20151;-64
2023/04/02 11:37:31;;;;;;;5.57;1.27;;;8.50;99.90;;;;;;5069967;28;20036;-64
2023/04/02 11:39:59;;;;;;;4.55;1.27;;;8.50;99.90;;;;;;5054704;28;20090;-65
2023/04/02 11:42:34;;;;;;;3.63;1.40;;;8.60;99.90;;;;;;5063319;28;20115;-64
2023/04/02 11:45:19;;;;;;;4.90;1.15;;;8.70;99.90;;;;;;5055427;28;20578;-64
2023/04/02 11:48:00;;;;;;;3.37;1.20;;;8.70;99.90;;;;;;5061431;28;20062;-64
2023/04/02 11:50:37;;;;;;;3.50;1.15;;;8.70;99.90;;;;;;5058971;28;20145;-65
2023/04/02 11:53:12;;;;;;;4.45;0.95;;;8.80;99.90;;;;;;5065231;28;20340;-64
2023/04/02 11:55:41;;;;;;;3.42;1.40;;;8.80;99.90;;;;;;5067735;28;20127;-64
2023/04/02 11:58:31;;;;;;;3.40;1.30;;;9.00;99.90;;;;;;5070049;28;20057;-64
2023/04/02 12:01:18;;;;;;;5.57;1.52;;;8.90;99.90;;;;;;5064141;28;20052;-64
2023/04/02 12:04:09;;;;;;;4.30;1.23;;;9.00;99.90;;;;;;5050315;28;20052;-64
2023/04/02 12:06:54;;;;;;;2.55;1.10;;;9.10;99.90;;;;;;5052018;28;20037;-65
2023/04/02 12:09:35;;;;;;;3.90;1.30;;;9.10;99.90;;;;;;5054379;28;20107;-64
2023/04/02 12:12:16;;;;;;;6.43;1.55;;;9.10;99.90;;;;;;5057058;28;20105;-64
2023/04/02 12:14:45;;;;;;;4.95;1.30;;;9.20;99.90;;;;;;5058190;28;20051;-65
2023/04/02 12:17:35;;;;;;;3.88;1.00;;;9.20;99.90;;;;;;5057694;28;20051;-64
2023/04/02 12:20:07;;;;;;;2.28;0.98;;;9.30;99.90;;;;;;5052116;28;20052;-64
2023/04/02 12:22:38;;;;;;;5.82;1.20;;;9.30;99.90;;;;;;5051914;28;20461;-64
2023/04/02 12:25:17;;;;;;;6.03;1.25;;;9.30;99.90;;;;;;5056488;28;20080;-65
2023/04/02 12:27:45;;;;;;;5.57;1.35;;;9.40;99.90;;;;;;5051396;28;20050;-64
2023/04/02 12:30:19;;;;;;;3.05;0.82;;;9.50;99.90;;;;;;5066120;28;20048;-64
2023/04/02 12:32:46;;;;;;;3.42;1.10;;;9.60;99.90;;;;;;5062928;28;20051;-64
2023/04/02 12:35:33;;;;;;;3.28;1.02;;;9.50;99.90;;;;;;5067652;28;20064;-64
2023/04/02 12:37:59;;;;;;;4.35;1.17;;;9.60;99.90;;;;;;5067751;28;20460;-64
2023/04/02 12:40:26;;;;;;;3.58;1.10;;;9.70;99.90;;;;;;5062084;28;20041;-64
2023/04/02 12:42:52;;;;;;;5.40;1.10;;;9.80;99.90;;;;;;5055322;28;20091;-64
2023/04/02 12:45:27;;;;;;;5.70;1.30;;;9.70;99.90;;;;;;5056790;28;20040;-64
2023/04/02 12:47:54;;;;;;;3.53;1.30;;;9.80;99.90;;;;;;5073075;28;20064;-64
2023/04/02 12:50:21;;;;;;;4.68;1.00;;;9.80;99.90;;;;;;5065942;28;20072;-64
2023/04/02 12:52:50;;;;;;;4.50;1.20;;;9.90;99.90;;;;;;5067062;28;20062;-64
2023/04/02 12:55:24;;;;;;;4.13;1.20;;;9.90;99.90;;;;;;5055162;28;20037;-64
2023/04/02 12:57:55;;;;;;;5.07;1.10;;;9.90;99.90;;;;;;5052631;28;20048;-64
2023/04/02 13:00:21;;;;;;;3.90;1.30;;;9.90;99.90;;;;;;5057316;28;20306;-64
2023/04/02 13:03:15;;;;;;;4.60;1.13;;;10.00;99.90;;;;;;5058111;28;20041;-64
2023/04/02 13:05:45;;;;;;;3.97;1.10;;;9.90;99.90;;;;;;5068421;28;20122;-64
2023/04/02 13:08:39;;;;;;;3.80;1.10;;;10.10;99.90;;;;;;5055736;28;20044;-64
2023/04/02 13:11:05;;;;;;;2.90;0.73;;;10.10;99.90;;;;;;5054245;28;20445;-64
2023/04/02 13:13:36;;;;;;;4.95;1.17;;;10.10;99.90;;;;;;5053069;28;20128;-64
2023/04/02 13:16:15;;;;;;;4.90;1.17;;;10.10;99.90;;;;;;5057568;28;20037;-64
2023/04/02 13:18:43;;;;;;;3.72;1.02;;;10.10;99.90;;;;;;5064045;28;20068;-64
2023/04/02 13:21:15;;;;;;;3.38;1.00;;;10.20;99.90;;;;;;5068602;28;20441;-64
2023/04/02 13:23:41;;;;;;;4.40;1.00;;;10.20;99.90;;;;;;5072998;28;20052;-64
2023/04/02 13:26:23;;;;;;;4.53;1.23;;;10.10;99.90;;;;;;5068182;28;20093;-64
2023/04/02 13:29:02;;;;;;;3.25;1.25;;;10.00;99.90;;;;;;5071530;28;20084;-64
2023/04/02 13:31:32;;;;;;;4.10;1.17;;;10.10;99.90;;;;;;5064777;28;20101;-64
2023/04/02 13:33:58;;;;;;;4.03;1.13;;;10.20;99.90;;;;;;5072600;28;20072;-64
2023/04/02 13:36:24;;;;;;;3.08;1.05;;;10.20;99.90;;;;;;5062299;28;20041;-64